• Join FlightAware (Why Join?)
  • Login
  • US Flag 
01:12PM EDT


 

Airport Tracker/Info


-or-


 

Live Flight TrackerFlight Track Log ✈ BJS339 ✈ 01-Jan-2014 ✈ KHPN - KTPA

Flight Track Log - Related Links

Times and Time Zones

All times are in EST time to prevent confusion due to time zone crossing. See the BJS339 flight status page for this flight to view local times or setup timezone preferences in your user account.

Time Position Orientation Groundspeed Altitude Reporting Facility
EST Latitude Longitude Course Direction KTS MPH feet Rate Location/Type
08:12AM 41.1000 -73.7667 239° Southwest 194 223 4,500  Level New York TRACON
08:13AM 41.0833 -73.8333 252° West 220 253 7,900 3,600 Climbing New York TRACON
08:14AM 41.0500 -73.9167 242° Southwest 224 258 11,800 3,540 Climbing New York TRACON
08:15AM 41.0167 -73.9833 236° Southwest 243 280 15,000 1,620 Climbing New York TRACON
08:16AM 40.9667 -74.0833 237° Southwest 299 344 15,100  Climbing New York TRACON
08:17AM 40.6350 -74.0583 239° Southwest  Level Estimated
08:17AM 40.8825 -74.2100 229° Southwest 309 356 15,100  Level New York Center
08:18AM 40.8300 -74.2953 231° Southwest 304 350 17,200 1,980 Climbing New York Center
08:19AM 40.7772 -74.3856 232° Southwest 309 356 19,100 2,100 Climbing New York Center
08:20AM 40.7244 -74.4731 232° Southwest 309 356 21,500 2,400 Climbing New York Center
08:21AM 40.6694 -74.5606 230° Southwest 309 356 24,000 2,460 Climbing New York Center
08:22AM 40.6144 -74.6531 232° Southwest 314 361 26,500 2,400 Climbing New York Center
08:23AM 40.5594 -74.7403 230° Southwest 314 361 28,900 1,860 Climbing New York Center
08:24AM 40.5064 -74.8325 233° Southwest 314 361 30,300 1,200 Climbing New York Center
08:25AM 40.4511 -74.9219 231° Southwest 314 361 31,400 1,020 Climbing New York Center
08:26AM 40.3894 -75.0164 229° Southwest 324 373 32,400 960 Climbing New York Center
08:28AM 40.3081 -75.1311 227° Southwest 349 402 33,600 960 Climbing New York Center
08:29AM 40.2419 -75.2250 227° Southwest 356 410 34,500 960 Climbing New York Center
08:30AM 40.1761 -75.3158 227° Southwest 356 410 35,600 1,260 Climbing New York Center
08:31AM 40.1164 -75.4014 228° Southwest 345 397 37,100 1,260 Climbing New York Center
08:32AM 40.0592 -75.4817 227° Southwest 330 380 38,200 840 Climbing New York Center
08:33AM 39.9994 -75.5617 226° Southwest 319 367 38,800 540 Climbing New York Center
08:34AM 39.9464 -75.6394 228° Southwest 319 367 39,300 540 Climbing New York Center
08:35AM 39.8886 -75.7219 228° Southwest 319 367 39,900 300 Climbing New York Center
08:36AM 39.8372 -75.8075 232° Southwest 314 361 40,000  Climbing New York Center
08:37AM 39.7811 -75.8953 230° Southwest 319 367 40,000  Level New York Center
08:38AM 39.6856 -76.0472 231° Southwest 319 367 40,000  Level Washington Center
08:39AM 39.6247 -76.1411 230° Southwest 329 379 40,000  Level Washington Center
08:40AM 39.5681 -76.2322 231° Southwest 329 379 40,000  Level Washington Center
08:41AM 39.5072 -76.3231 229° Southwest 335 386 40,000  Level Washington Center
08:42AM 39.4547 -76.4033 230° Southwest 335 386 40,000  Level Washington Center
08:43AM 39.3850 -76.5100 230° Southwest 330 380 40,000  Level Washington Center
08:44AM 39.3344 -76.5869 230° Southwest 330 380 40,000  Level Washington Center
08:45AM 39.2775 -76.6775 231° Southwest 330 380 40,000  Level Washington Center
08:46AM 39.2203 -76.7678 231° Southwest 330 380 40,000  Level Washington Center
08:47AM 39.1653 -76.8525 230° Southwest 325 374 40,000  Level Washington Center
08:48AM 39.1100 -76.9397 231° Southwest 325 374 40,000  Level Washington Center
08:49AM 39.0528 -77.0242 229° Southwest 325 374 40,000  Level Washington Center
08:50AM 38.9853 -77.1031 222° Southwest 325 374 40,000  Level Washington Center
08:51AM 38.9133 -77.1817 220° Southwest 325 374 40,000  Level Washington Center
08:52AM 38.8456 -77.2603 222° Southwest 338 389 40,000  Level Washington Center
08:53AM 38.7736 -77.3358 219° Southwest 338 389 40,000  Level Washington Center
08:54AM 38.6953 -77.4189 220° Southwest 338 389 40,000  Level Washington Center
08:55AM 38.6253 -77.4969 221° Southwest 338 389 40,000  Level Washington Center
08:56AM 38.5553 -77.5722 220° Southwest 338 389 40,000  Level Washington Center
08:57AM 38.4831 -77.6497 220° Southwest 338 389 40,000  Level Washington Center
08:58AM 38.4128 -77.7275 221° Southwest 338 389 40,000  Level Washington Center
08:59AM 38.3406 -77.8047 220° Southwest 338 389 40,000  Level Washington Center
09:00AM 38.2725 -77.8794 221° Southwest 338 389 40,000  Level Washington Center
09:01AM 38.2022 -77.9539 220° Southwest 338 389 40,000  Level Washington Center
09:02AM 38.1319 -78.0283 220° Southwest 338 389 40,000  Level Washington Center
09:03AM 38.0614 -78.1025 220° Southwest 338 389 40,000  Level Washington Center
09:04AM 37.9911 -78.1739 219° Southwest 338 389 40,000  Level Washington Center
09:05AM 37.9292 -78.2375 219° Southwest 332 382 40,000  Level Washington Center
09:06AM 37.8567 -78.3114 219° Southwest 332 382 40,000  Level Washington Center
09:07AM 37.7717 -78.3869 215° Southwest 341 392 40,000  Level Washington Center
09:08AM 37.6947 -78.4603 217° Southwest 346 398 40,000  Level Washington Center
09:09AM 37.6181 -78.5308 216° Southwest 346 398 40,000  Level Washington Center
09:10AM 37.5433 -78.6014 217° Southwest 346 398 40,000  Level Washington Center
09:11AM 37.4747 -78.6667 217° Southwest 346 398 40,000  Level Washington Center
09:12AM 37.4000 -78.7342 216° Southwest 346 398 40,000  Level Washington Center
09:13AM 37.3272 -78.8044 218° Southwest 346 398 40,000  Level Washington Center
09:14AM 37.2525 -78.8717 216° Southwest 346 398 40,000  Level Washington Center
09:15AM 37.1775 -78.9414 217° Southwest 346 398 40,000  Level Washington Center
09:16AM 37.1025 -79.0086 216° Southwest 346 398 40,000  Level Washington Center
09:17AM 37.0211 -79.0856 217° Southwest 346 398 40,000  Level Washington Center
09:18AM 36.9481 -79.1525 216° Southwest 346 398 40,000  Level Washington Center
09:19AM 36.8731 -79.2192 215° Southwest 346 398 40,000  Level Washington Center
09:20AM 36.8000 -79.2856 216° Southwest 340 391 40,000  Level Washington Center
09:21AM 36.7311 -79.3550 219° Southwest 340 391 40,000  Level Washington Center
09:22AM 36.6647 -79.4139 215° Southwest 335 386 40,000  Level Washington Center
09:23AM 36.5936 -79.4803 217° Southwest 335 386 40,000  Level Washington Center
09:25AM 36.4456 -79.6100 215° Southwest 341 392 40,000  Level Atlanta Center
09:26AM 36.3708 -79.6786 216° Southwest 346 398 40,000  Level Atlanta Center
09:27AM 36.2961 -79.7469 216° Southwest 346 398 40,000  Level Atlanta Center
09:28AM 36.2211 -79.8128 215° Southwest 346 398 40,000  Level Atlanta Center
09:29AM 36.1544 -79.8728 216° Southwest 346 398 40,000  Level Atlanta Center
09:30AM 36.0794 -79.9408 216° Southwest 346 398 40,000  Level Atlanta Center
09:31AM 35.9939 -79.9992 209° Southwest 346 398 40,000  Level Atlanta Center
09:32AM 35.8994 -80.0475 203° Southwest 357 411 40,000  Level Atlanta Center
09:33AM 35.7969 -80.0986 202° Southwest 369 425 40,000  Level Atlanta Center
09:34AM 35.7003 -80.1467 202° Southwest 369 425 40,000  Level Atlanta Center
09:35AM 35.6039 -80.1947 202° Southwest 369 425 40,000  Level Atlanta Center
09:36AM 35.5094 -80.2450 203° Southwest 369 425 40,000  Level Atlanta Center
09:37AM 35.4128 -80.2928 202° Southwest 369 425 40,000  Level Atlanta Center
09:38AM 35.3183 -80.3378 201° Southwest 369 425 40,000  Level Atlanta Center
09:39AM 35.2217 -80.3881 203° Southwest 369 425 40,000  Level Atlanta Center
09:41AM 35.0936 -80.4522 202° Southwest 352 405 40,000  Level Jacksonville Center
09:42AM 34.9903 -80.5006 201° Southwest 357 411 40,000  Level Jacksonville Center
09:43AM 34.8994 -80.5436 201° Southwest 357 411 40,000  Level Jacksonville Center
09:44AM 34.8044 -80.5969 205° Southwest 353 406 40,000  Level Jacksonville Center
09:45AM 34.7092 -80.6422 201° Southwest 348 400 40,000  Level Jacksonville Center
09:46AM 34.6183 -80.6875 202° Southwest 353 406 40,000  Level Jacksonville Center
09:47AM 34.5272 -80.7328 202° Southwest 368 423 40,000  Level Jacksonville Center
09:48AM 34.4342 -80.7778 202° Southwest 368 423 40,000  Level Jacksonville Center
09:49AM 34.3469 -80.8028 193° South 358 412 40,000  Level Jacksonville Center
09:50AM 34.2539 -80.8603 207° Southwest 363 418 40,000  Level Jacksonville Center
09:51AM 34.1608 -80.9050 202° Southwest 358 412 40,000  Level Jacksonville Center
09:52AM 34.0678 -80.9497 202° Southwest 358 412 40,000  Level Jacksonville Center
09:53AM 33.9744 -80.9944 202° Southwest 364 419 40,000  Level Jacksonville Center
09:54AM 33.8769 -81.0389 201° Southwest 370 426 40,000  Level Jacksonville Center
09:55AM 33.7794 -81.0811 200° South 375 432 40,000  Level Jacksonville Center
09:56AM 33.6822 -81.1306 203° Southwest 375 432 40,000  Level Jacksonville Center
09:57AM 33.5847 -81.1747 201° Southwest 375 432 40,000  Level Jacksonville Center
09:58AM 33.4894 -81.2214 202° Southwest 375 432 40,000  Level Jacksonville Center
09:59AM 33.3939 -81.2631 200° South 375 432 40,000  Level Jacksonville Center
10:00AM 33.2986 -81.3094 202° Southwest 370 426 40,000  Level Jacksonville Center
10:01AM 33.2031 -81.3533 201° Southwest 370 426 40,000  Level Jacksonville Center
10:02AM 33.1056 -81.3972 201° Southwest 370 426 40,000  Level Jacksonville Center
10:03AM 33.0100 -81.4408 201° Southwest 370 426 40,000  Level Jacksonville Center
10:04AM 32.9122 -81.4869 202° Southwest 375 432 40,000  Level Jacksonville Center
10:05AM 32.8147 -81.5306 201° Southwest 375 432 40,000  Level Jacksonville Center
10:06AM 32.7169 -81.5742 201° Southwest 375 432 40,000  Level Jacksonville Center
10:07AM 32.6111 -81.6225 201° Southwest 375 432 40,000  Level Jacksonville Center
10:08AM 32.5197 -81.6583 198° South 381 438 40,000  Level Jacksonville Center
10:09AM 32.4031 -81.6869 192° South 386 444 40,000  Level Jacksonville Center
10:10AM 32.2989 -81.7153 193° South 393 452 40,000  Level Jacksonville Center
10:11AM 32.2031 -81.7361 190° South 393 452 40,000  Level Jacksonville Center
10:12AM 32.0864 -81.7647 192° South 393 452 40,000  Level Jacksonville Center
10:13AM 31.9906 -81.7903 193° South 393 452 40,000  Level Jacksonville Center
10:14AM 31.8758 -81.8186 192° South 393 452 40,000  Level Jacksonville Center
10:15AM 31.7697 -81.8417 190° South 393 452 40,000 -420 Level Jacksonville Center
10:16AM 31.6758 -81.8647 192° South 393 452 39,200 -960 Descending Jacksonville Center
10:17AM 31.5572 -81.8931 192° South 393 452 38,100 -600 Descending Jacksonville Center
10:18AM 31.4508 -81.9208 193° South 393 452 38,000 -360 Descending Jacksonville Center
10:19AM 31.3403 -81.9464 191° South 393 452 37,400 -540 Descending Jacksonville Center
10:20AM 31.2278 -81.9742 192° South 403 464 37,000 -240 Descending Jacksonville Center
10:21AM 31.1194 -81.9994 191° South 403 464 37,000  Level Jacksonville Center
10:22AM 31.0089 -82.0272 192° South 408 470 37,000  Level Jacksonville Center
10:23AM 30.9006 -82.0550 192° South 408 470 37,000  Level Jacksonville Center
10:24AM 30.7900 -82.0800 191° South 413 475 37,000 -300 Level Jacksonville Center
10:25AM 30.6775 -82.1075 192° South 413 475 36,400 -540 Descending Jacksonville Center
10:26AM 30.5650 -82.1325 191° South 413 475 36,000 -240 Descending Jacksonville Center
10:27AM 30.4522 -82.1528 189° South 408 470 36,000  Level Jacksonville Center
10:28AM 30.3375 -82.1800 192° South 413 475 36,000  Level Jacksonville Center
10:29AM 30.2250 -82.2050 191° South 418 481 36,000  Level Jacksonville Center
10:30AM 30.1125 -82.2322 192° South 418 481 36,000 -420 Level Jacksonville Center
10:31AM 29.9978 -82.2642 194° South 418 481 35,200 -1,560 Descending Jacksonville Center
10:32AM 29.8850 -82.2914 192° South 418 481 32,900 -2,340 Descending Jacksonville Center
10:33AM 29.7725 -82.3183 192° South 413 475 30,600 -2,340 Descending Jacksonville Center
10:34AM 29.6744 -82.3381 190° South 408 470 28,300 -2,460 Descending Jacksonville Center
10:35AM 29.5703 -82.3553 188° South 402 463 25,700 -1,800 Descending Jacksonville Center
10:36AM 29.4636 -82.3464 176° South 385 443 24,700 -1,260 Descending Jacksonville Center
10:37AM 29.3508 -82.3328 174° South 391 450 23,200 -1,800 Descending Jacksonville Center
10:38AM 29.2422 -82.3167 173° South 401 461 21,100 -1,980 Descending Jacksonville Center
10:39AM 29.1336 -82.3053 175° South 401 461 19,300 -1,620 Descending Jacksonville Center
10:40AM 29.0314 -82.2942 175° South 391 450 17,900 -1,680 Descending Jacksonville Center
10:41AM 28.9186 -82.2783 173° South 379 436 16,000 -1,800 Descending Jacksonville Center
10:42AM 28.8161 -82.2647 173° South 379 436 14,300 -1,020 Descending Jacksonville Center
10:44AM 28.6167 -82.2500 176° South 346 398 13,000 -600 Descending Tampa TRACON
10:45AM 28.5333 -82.2500 180° South 354 407 12,700 -720 Descending Tampa TRACON
10:46AM 28.4333 -82.2500 180° South 352 405 11,800 -840 Descending Tampa TRACON
10:47AM 28.3333 -82.2667 188° South 329 379 11,000 -540 Descending Tampa TRACON
10:48AM 28.2667 -82.3333 221° Southwest 316 364 10,700 -660 Descending Tampa TRACON
10:49AM 28.2167 -82.3833 221° Southwest 272 313 9,900 -1,260 Descending Tampa TRACON
10:50AM 28.1500 -82.4167 204° Southwest 265 305 8,500 -1,440 Descending Tampa TRACON
10:51AM 28.0667 -82.4167 180° South 266 306 6,900 -1,380 Descending Tampa TRACON
10:52AM 28.0167 -82.4167 180° South 250 288 5,800 -1,020 Descending Tampa TRACON
10:53AM 27.9333 -82.4167 180° South 245 282 5,000 -600 Descending Tampa TRACON
10:54AM 27.8833 -82.4167 180° South 169 194 4,600 -540 Descending Tampa TRACON
10:54AM 27.8500 -82.4167 180° South 170 196 4,000 -780 Descending Tampa TRACON
10:55AM 27.8000 -82.4167 180° South 172 198 3,200 -720 Descending Tampa TRACON
10:56AM 27.7833 -82.4667 249° West 201 231 2,600 -300 Descending Tampa TRACON
10:57AM 27.8000 -82.5333 286° West 209 241 2,600 -120 Level Tampa TRACON
10:58AM 27.8500 -82.5500 344° North 181 208 2,400 -480 Descending Tampa TRACON
11:00AM 27.8833 -82.5500 360° North 114 131 1,600 -720 Descending Tampa TRACON
11:01AM 27.9167 -82.5500 360° North 123 142 1,000 -600 Descending Tampa TRACON
11:02AM 27.9500 -82.5500 360° North 115 132 400 -600 Descending Tampa TRACON